createdAt,value
2019-03-19T00:02:27.648Z,102211.25
2019-03-19T00:05:50.897Z,102207.53
2019-03-19T00:09:15.337Z,102207.02
2019-03-19T00:12:38.503Z,102207.53
2019-03-19T00:16:01.661Z,102203.53
2019-03-19T00:19:24.858Z,102211.25
2019-03-19T00:22:47.965Z,102206.54
2019-03-19T00:26:14.118Z,102214.23
2019-03-19T00:29:38.362Z,102203.79
2019-03-19T00:33:02.561Z,102205.18
2019-03-19T00:36:25.691Z,102202.03
2019-03-19T00:39:48.820Z,102204.38
2019-03-19T00:43:12.375Z,102211.50
2019-03-19T00:46:35.469Z,102215.73
2019-03-19T00:49:58.613Z,102210.18
2019-03-19T00:53:21.703Z,102218.58
2019-03-19T00:56:44.778Z,102223.05
2019-03-19T01:00:10.431Z,102231.02
2019-03-19T01:03:33.512Z,102227.29
2019-03-19T01:06:56.706Z,102220.06
2019-03-19T01:10:19.985Z,102232.59
2019-03-19T01:13:43.143Z,102233.09
2019-03-19T01:17:06.447Z,102233.61
2019-03-19T01:20:29.554Z,102241.66
2019-03-19T01:23:52.796Z,102234.16
2019-03-19T01:27:18.016Z,102239.36
2019-03-19T01:30:41.119Z,102237.54
2019-03-19T01:34:04.205Z,102233.80
2019-03-19T01:37:27.320Z,102234.69
2019-03-19T01:40:50.600Z,102242.48
2019-03-19T01:44:14.059Z,102242.48
2019-03-19T01:47:37.207Z,102249.23
2019-03-19T01:51:00.346Z,102252.77
2019-03-19T01:54:23.424Z,102255.00
2019-03-19T01:57:46.602Z,102261.65
2019-03-19T02:01:09.852Z,102258.19
2019-03-19T02:04:33.035Z,102257.94
2019-03-19T02:07:56.249Z,102260.99
2019-03-19T02:11:19.350Z,102262.45
2019-03-19T02:14:42.651Z,102264.25
2019-03-19T02:18:05.784Z,102270.01
2019-03-19T02:21:29.207Z,102273.63
2019-03-19T02:24:52.631Z,102278.49
2019-03-19T02:28:15.881Z,102287.87
2019-03-19T02:31:38.986Z,102297.22
2019-03-19T02:35:02.140Z,102288.50
2019-03-19T02:38:25.443Z,102285.80
2019-03-19T02:41:48.783Z,102295.14
2019-03-19T02:45:12.133Z,102286.20
2019-03-19T02:48:35.675Z,102296.92
2019-03-19T02:51:58.905Z,102299.90
2019-03-19T02:55:22.342Z,102307.92
2019-03-19T02:58:45.448Z,102313.73
2019-03-19T03:02:08.604Z,102317.87
2019-03-19T03:05:31.814Z,102326.77
2019-03-19T03:08:54.924Z,102330.76
2019-03-19T03:12:18.046Z,102335.30
2019-03-19T03:15:41.173Z,102324.27
2019-03-19T03:19:04.443Z,102321.59
2019-03-19T03:22:27.642Z,102323.28
2019-03-19T03:25:50.793Z,102325.61
2019-03-19T03:29:13.884Z,102329.66
2019-03-19T03:32:37.030Z,102329.20
2019-03-19T03:36:00.122Z,102327.88
2019-03-19T03:39:23.252Z,102338.94
2019-03-19T03:42:46.386Z,102332.31
2019-03-19T03:46:09.477Z,102329.67
2019-03-19T03:49:32.967Z,102339.44
2019-03-19T03:52:56.055Z,102338.57
2019-03-19T03:56:19.148Z,102335.05
2019-03-19T03:59:42.346Z,102337.77
2019-03-19T04:03:05.470Z,102353.71
2019-03-19T04:06:28.651Z,102358.53
2019-03-19T04:09:52.957Z,102351.38
2019-03-19T04:13:16.121Z,102350.74
2019-03-19T04:16:39.303Z,102346.88
2019-03-19T04:20:02.580Z,102356.20
2019-03-19T04:23:25.674Z,102365.51
2019-03-19T04:26:48.957Z,102368.23
2019-03-19T04:30:12.285Z,102374.45
2019-03-19T04:33:35.411Z,102381.21
2019-03-19T04:36:58.527Z,102387.41
2019-03-19T04:40:21.732Z,102387.41
2019-03-19T04:43:44.805Z,102393.25
2019-03-19T04:47:08.248Z,102400.79
2019-03-19T04:50:31.364Z,102397.66
2019-03-19T04:53:54.943Z,102393.20
2019-03-19T04:57:26.309Z,102399.36
2019-03-19T05:00:43.616Z,102405.21
2019-03-19T05:04:06.931Z,102402.47
2019-03-19T05:07:30.030Z,102402.42
2019-03-19T05:10:53.536Z,102400.15
2019-03-19T05:14:16.738Z,102413.53
2019-03-19T05:17:39.993Z,102413.95
2019-03-19T05:21:03.143Z,102408.12
2019-03-19T05:24:27.243Z,102412.06
2019-03-19T05:27:50.357Z,102408.02
2019-03-19T05:31:13.499Z,102408.44
2019-03-19T05:34:36.924Z,102414.20
2019-03-19T05:38:00.393Z,102422.68
2019-03-19T05:41:23.475Z,102424.61
2019-03-19T05:44:46.745Z,102430.59
2019-03-19T05:48:09.840Z,102438.23
2019-03-19T05:51:32.995Z,102445.33
2019-03-19T05:54:56.326Z,102448.89
2019-03-19T05:58:22.500Z,102448.30
2019-03-19T06:01:45.668Z,102455.52
2019-03-19T06:05:10.363Z,102464.91
2019-03-19T06:08:33.795Z,102463.98
2019-03-19T06:11:59.887Z,102469.18
2019-03-19T06:15:23.006Z,102475.16
2019-03-19T06:18:46.193Z,102484.48
2019-03-19T06:22:09.316Z,102476.66
2019-03-19T06:25:33.482Z,102483.67
2019-03-19T06:28:56.579Z,102482.09
2019-03-19T06:32:19.886Z,102483.30
2019-03-19T06:35:43.146Z,102490.04
2019-03-19T06:39:07.434Z,102498.09
2019-03-19T06:42:30.751Z,102484.20
2019-03-19T06:45:53.974Z,102486.70
2019-03-19T06:49:17.131Z,102492.45
2019-03-19T06:52:40.629Z,102500.36
2019-03-19T06:56:04.040Z,102507.38
2019-03-19T06:59:27.296Z,102516.27
2019-03-19T07:02:50.662Z,102516.69
2019-03-19T07:06:14.830Z,102512.63
2019-03-19T07:09:38.019Z,102522.72
2019-03-19T07:13:01.253Z,102529.69
2019-03-19T07:16:24.407Z,102520.32
2019-03-19T07:19:47.519Z,102516.88
2019-03-19T07:23:10.691Z,102517.33
2019-03-19T07:26:34.027Z,102522.63
2019-03-19T07:29:58.220Z,102524.20
2019-03-19T07:33:21.349Z,102525.89
2019-03-19T07:36:44.485Z,102523.51
2019-03-19T07:40:09.367Z,102540.95
2019-03-19T07:43:32.600Z,102547.66
2019-03-19T07:46:56.054Z,102549.48
2019-03-19T07:50:19.590Z,102544.76
2019-03-19T07:53:42.810Z,102544.44
2019-03-19T07:57:05.980Z,102553.66
2019-03-19T08:00:29.167Z,102548.70
2019-03-19T08:03:52.286Z,102552.86
2019-03-19T08:07:16.037Z,102554.86
2019-03-19T08:10:39.174Z,102559.63
2019-03-19T08:14:02.335Z,102556.50
2019-03-19T08:17:26.460Z,102555.00
2019-03-19T08:20:49.609Z,102564.80
2019-03-19T08:24:12.736Z,102564.33
2019-03-19T08:27:35.916Z,102571.03
2019-03-19T08:30:59.263Z,102578.67
2019-03-19T08:34:22.646Z,102588.05
2019-03-19T08:37:45.901Z,102586.73
2019-03-19T08:41:09.163Z,102593.63
2019-03-19T08:44:32.643Z,102593.78
2019-03-19T08:47:55.784Z,102592.14
2019-03-19T08:51:19.421Z,102594.44
2019-03-19T08:54:42.729Z,102603.36
2019-03-19T08:58:05.928Z,102604.84
2019-03-19T09:01:29.227Z,102602.55
2019-03-19T09:04:52.475Z,102597.73
2019-03-19T09:08:15.590Z,102599.25
2019-03-19T09:11:38.764Z,102603.22
2019-03-19T09:15:02.004Z,102608.22
2019-03-19T09:18:25.328Z,102612.95
2019-03-19T09:21:49.149Z,102607.61
2019-03-19T09:25:12.849Z,102614.45
2019-03-19T09:28:36.056Z,102613.58
2019-03-19T09:31:59.182Z,102608.01
2019-03-19T09:35:22.467Z,102615.34
2019-03-19T09:38:45.578Z,102616.77
2019-03-19T09:42:08.746Z,102616.95
2019-03-19T09:45:31.915Z,102617.88
2019-03-19T09:48:56.069Z,102619.70
2019-03-19T09:52:19.324Z,102626.73
2019-03-19T09:55:42.893Z,102621.70
2019-03-19T09:59:06.043Z,102623.84
2019-03-19T10:02:29.174Z,102613.68
2019-03-19T10:05:52.793Z,102612.34
2019-03-19T10:09:15.989Z,102626.77
2019-03-19T10:12:39.141Z,102626.08
2019-03-19T10:16:02.278Z,102630.55
2019-03-19T10:19:25.474Z,102629.58
2019-03-19T10:22:48.735Z,102625.05
2019-03-19T10:26:12.301Z,102627.63
2019-03-19T10:29:38.628Z,102626.64
2019-03-19T10:33:00.936Z,102628.27
2019-03-19T10:36:24.521Z,102611.45
2019-03-19T10:39:47.681Z,102609.02
2019-03-19T10:43:10.926Z,102618.58
2019-03-19T10:46:35.176Z,102613.67
2019-03-19T10:49:58.632Z,102614.20
2019-03-19T10:53:21.868Z,102617.69
2019-03-19T10:56:45.074Z,102614.70
2019-03-19T11:00:16.966Z,102611.09
2019-03-19T11:03:40.334Z,102616.02
2019-03-19T11:07:03.471Z,102614.20
2019-03-19T11:10:26.676Z,102614.73
2019-03-19T11:13:49.885Z,102615.86
2019-03-19T11:17:13.164Z,102627.66
2019-03-19T11:20:36.408Z,102628.61
2019-03-19T11:23:59.554Z,102625.09
2019-03-19T11:27:22.661Z,102625.98
2019-03-19T11:30:45.947Z,102624.16
2019-03-19T11:34:09.194Z,102623.56
2019-03-19T11:37:32.555Z,102623.39
2019-03-19T11:40:56.082Z,102617.41
2019-03-19T11:44:19.465Z,102624.31
2019-03-19T11:47:42.958Z,102621.08
2019-03-19T11:51:06.146Z,102621.47
2019-03-19T11:54:32.351Z,102620.05
2019-03-19T11:57:58.877Z,102610.17
2019-03-19T12:01:22.505Z,102604.31
2019-03-19T12:04:46.074Z,102608.41
2019-03-19T12:08:09.981Z,102609.99
2019-03-19T12:11:33.187Z,102604.75
2019-03-19T12:14:56.587Z,102610.00
2019-03-19T12:18:20.101Z,102608.41
2019-03-19T12:21:43.849Z,102611.08
2019-03-19T12:25:09.643Z,102611.08
2019-03-19T12:28:39.533Z,102609.59
2019-03-19T12:32:01.535Z,102599.13
2019-03-19T12:35:24.779Z,102604.84
2019-03-19T12:38:47.946Z,102602.66
2019-03-19T12:42:11.073Z,102605.39
2019-03-19T12:45:34.361Z,102600.47
2019-03-19T12:48:57.658Z,102603.80
2019-03-19T12:52:20.950Z,102608.85
2019-03-19T12:55:44.243Z,102603.27
2019-03-19T12:59:07.524Z,102601.73
2019-03-19T13:02:30.772Z,102605.39
2019-03-19T13:05:54.057Z,102602.39
2019-03-19T13:09:17.554Z,102607.09
2019-03-19T13:12:40.736Z,102610.27
2019-03-19T13:16:04.123Z,102616.36
2019-03-19T13:19:27.296Z,102606.09
2019-03-19T13:22:50.477Z,102608.48
2019-03-19T13:26:13.592Z,102609.50
2019-03-19T13:29:36.947Z,102612.06
2019-03-19T13:33:00.413Z,102600.94
2019-03-19T13:36:24.302Z,102615.00
2019-03-19T13:39:47.802Z,102622.39
2019-03-19T13:43:13.737Z,102608.75
2019-03-19T13:46:41.855Z,102612.69
2019-03-19T13:50:06.059Z,102613.52
2019-03-19T13:53:29.137Z,102609.20
2019-03-19T13:56:52.404Z,102608.16
2019-03-19T14:00:55.657Z,102606.52
2019-03-19T14:04:16.039Z,102607.40
2019-03-19T14:07:39.582Z,102609.14
2019-03-19T14:11:03.864Z,102605.44
2019-03-19T14:14:27.328Z,102598.45
2019-03-19T14:17:50.745Z,102603.00
2019-03-19T14:21:13.864Z,102600.25
2019-03-19T14:24:37.062Z,102592.80
2019-03-19T14:28:00.219Z,102593.64
2019-03-19T14:31:23.372Z,102598.34
2019-03-19T14:34:46.540Z,102599.31
2019-03-19T14:38:10.062Z,102598.77
2019-03-19T14:41:33.353Z,102596.05
2019-03-19T14:44:56.571Z,102599.95
2019-03-19T14:48:19.830Z,102596.44
2019-03-19T14:51:42.943Z,102598.23
2019-03-19T14:55:06.260Z,102601.84
2019-03-19T14:58:29.396Z,102601.96
2019-03-19T15:01:52.811Z,102599.08
2019-03-19T15:05:16.351Z,102594.45
2019-03-19T15:08:39.888Z,102598.98
2019-03-19T15:12:03.129Z,102602.39
2019-03-19T15:15:26.381Z,102604.42
2019-03-19T15:18:49.477Z,102607.75
2019-03-19T15:22:12.719Z,102607.20
2019-03-19T15:25:36.044Z,102602.33
2019-03-19T15:28:59.340Z,102604.51
2019-03-19T15:32:22.567Z,102602.64
2019-03-19T15:35:45.746Z,102600.55
2019-03-19T15:39:08.891Z,102602.16
2019-03-19T15:42:32.077Z,102614.56
2019-03-19T15:45:55.439Z,102609.90
2019-03-19T15:49:18.784Z,102620.34
2019-03-19T15:52:42.166Z,102610.92
2019-03-19T15:56:05.559Z,102611.41
2019-03-19T15:59:28.798Z,102614.20
2019-03-19T16:02:52.225Z,102608.33
2019-03-19T16:06:15.719Z,102612.11
2019-03-19T16:09:39.061Z,102616.08
2019-03-19T16:13:02.272Z,102618.23
2019-03-19T16:16:25.572Z,102614.50
2019-03-19T16:19:50.048Z,102614.91
2019-03-19T16:23:14.273Z,102619.84
2019-03-19T16:26:37.795Z,102619.66
2019-03-19T16:30:00.909Z,102623.84
2019-03-19T16:33:24.182Z,102623.53
2019-03-19T16:36:47.438Z,102626.14
2019-03-19T16:40:16.068Z,102628.95
2019-03-19T16:43:39.438Z,102632.20
2019-03-19T16:47:02.927Z,102631.32
2019-03-19T16:50:26.275Z,102630.33
2019-03-19T16:53:49.665Z,102636.28
2019-03-19T16:57:12.966Z,102637.89
2019-03-19T17:00:36.175Z,102639.36
2019-03-19T17:03:59.511Z,102642.42
2019-03-19T17:07:22.644Z,102640.83
2019-03-19T17:12:14.396Z,102645.27
2019-03-19T17:16:06.107Z,102646.03
2019-03-19T17:19:29.302Z,102652.26
2019-03-19T17:22:52.451Z,102654.73
2019-03-19T17:26:16.571Z,102658.16
2019-03-19T17:29:39.679Z,102660.37
2019-03-19T17:33:07.854Z,102665.39
2019-03-19T17:36:36.843Z,102667.69
2019-03-19T17:40:09.423Z,102669.09
2019-03-19T17:43:33.587Z,102679.95
2019-03-19T17:46:57.995Z,102683.89
2019-03-19T17:50:21.420Z,102683.17
2019-03-19T17:53:45.052Z,102682.48
2019-03-19T17:57:08.305Z,102683.66
2019-03-19T18:00:31.929Z,102696.50
2019-03-19T18:03:55.137Z,102693.48
2019-03-19T18:07:18.309Z,102699.22
2019-03-19T18:10:42.505Z,102697.28
2019-03-19T18:14:05.762Z,102700.52
2019-03-19T18:17:29.011Z,102704.20
2019-03-19T18:20:52.313Z,102710.77
2019-03-19T18:24:15.429Z,102708.04
2019-03-19T18:27:38.667Z,102713.86
2019-03-19T18:31:01.801Z,102711.23
2019-03-19T18:34:25.107Z,102712.76
2019-03-19T18:37:48.390Z,102716.89
2019-03-19T18:41:12.022Z,102714.00
2019-03-19T18:44:35.188Z,102715.88
2019-03-19T18:47:58.291Z,102724.91
2019-03-19T18:51:21.410Z,102722.38
2019-03-19T18:54:44.691Z,102725.13
2019-03-19T18:58:07.864Z,102735.05
2019-03-19T19:01:31.054Z,102739.22
2019-03-19T19:04:54.477Z,102740.31
2019-03-19T19:08:17.764Z,102742.17
2019-03-19T19:11:41.021Z,102739.48
2019-03-19T19:15:05.673Z,102751.80
2019-03-19T19:18:28.838Z,102755.06
2019-03-19T19:21:52.305Z,102757.42
2019-03-19T19:25:18.115Z,102762.15
2019-03-19T19:28:42.559Z,102766.28
2019-03-19T19:32:05.701Z,102766.11
2019-03-19T19:35:28.839Z,102772.37
2019-03-19T19:38:52.334Z,102775.51
2019-03-19T19:42:15.953Z,102773.88
2019-03-19T19:45:39.788Z,102778.51
2019-03-19T19:49:03.012Z,102786.55
2019-03-19T19:52:26.360Z,102790.53
2019-03-19T19:55:49.686Z,102793.48
2019-03-19T19:59:13.010Z,102793.96
2019-03-19T20:02:36.263Z,102796.50
2019-03-19T20:05:59.690Z,102802.52
2019-03-19T20:09:23.087Z,102804.41
2019-03-19T20:12:46.551Z,102810.08
2019-03-19T20:16:10.016Z,102813.77
2019-03-19T20:19:33.234Z,102819.98
2019-03-19T20:22:56.555Z,102820.06
2019-03-19T20:26:19.747Z,102823.72
2019-03-19T20:29:43.274Z,102823.72
2019-03-19T20:33:06.506Z,102822.88
2019-03-19T20:36:29.774Z,102822.20
2019-03-19T20:39:54.758Z,102821.19
2019-03-19T20:43:18.233Z,102829.34
2019-03-19T20:46:44.057Z,102831.53
2019-03-19T20:50:17.948Z,102828.41
2019-03-19T20:53:41.351Z,102834.52
2019-03-19T20:57:05.245Z,102825.74
2019-03-19T21:00:31.812Z,102842.89
2019-03-19T21:03:55.125Z,102849.91
2019-03-19T21:07:18.257Z,102852.08
2019-03-19T21:10:41.633Z,102855.45
2019-03-19T21:14:05.109Z,102853.98
2019-03-19T21:17:28.418Z,102862.25
2019-03-19T21:20:51.695Z,102872.88
2019-03-19T21:24:15.038Z,102873.77
2019-03-19T21:27:41.744Z,102878.17
2019-03-19T21:31:08.437Z,102888.70
2019-03-19T21:34:32.047Z,102890.90
2019-03-19T21:37:55.185Z,102882.46
2019-03-19T21:41:18.503Z,102882.75
2019-03-19T21:44:41.731Z,102884.62
2019-03-19T21:48:04.815Z,102878.51
2019-03-19T21:51:28.337Z,102876.56
2019-03-19T21:54:51.440Z,102873.77
2019-03-19T21:58:14.540Z,102872.34
2019-03-19T22:01:37.855Z,102869.74
2019-03-19T22:05:01.181Z,102868.88
2019-03-19T22:08:24.406Z,102864.69
2019-03-19T22:11:47.650Z,102861.56
2019-03-19T22:15:14.302Z,102857.84
2019-03-19T22:18:37.826Z,102854.78
2019-03-19T22:22:00.943Z,102866.25
2019-03-19T22:25:24.397Z,102871.55
2019-03-19T22:28:47.777Z,102877.77
2019-03-19T22:32:10.981Z,102882.56
2019-03-19T22:35:34.202Z,102884.19
2019-03-19T22:38:57.381Z,102887.64
2019-03-19T22:42:20.664Z,102890.05
2019-03-19T22:45:43.825Z,102889.70
2019-03-19T22:49:07.307Z,102887.66
2019-03-19T22:52:30.519Z,102893.02
2019-03-19T22:55:53.752Z,102899.73
2019-03-19T22:59:17.000Z,102894.47
2019-03-19T23:02:40.213Z,102895.23
2019-03-19T23:06:03.467Z,102898.59
2019-03-19T23:09:26.697Z,102898.81
2019-03-19T23:12:49.985Z,102892.13
2019-03-19T23:16:13.253Z,102877.37
2019-03-19T23:19:36.663Z,102877.64
2019-03-19T23:22:59.812Z,102875.53
2019-03-19T23:26:22.988Z,102877.87
2019-03-19T23:29:46.193Z,102874.88
2019-03-19T23:33:09.394Z,102880.23
2019-03-19T23:36:35.568Z,102888.36
2019-03-19T23:39:59.182Z,102888.50
2019-03-19T23:43:22.454Z,102892.62
2019-03-19T23:46:45.701Z,102889.34
2019-03-19T23:50:10.158Z,102884.13
2019-03-19T23:53:34.616Z,102887.22
2019-03-19T23:56:57.999Z,102896.53
